Terminal Aerodrome Forecast
Issued by NWS

Home | Current Version | Previous Version | Graphics & Text | Print | Product List | Glossary On
Versions: 1 2 3 4 5 6 7 8 9 10 11 12 13 14 15 16 17 18 19 20 21 22 23 24
767
FTUS42 KMHX 221519 AAE
TAFPGV
TAF AMD
KPGV 221519Z 2215/2312 07006KT P6SM VCSH SCT020 BKN030
     FM221800 06007KT 5SM SHRA BKN020
     FM230000 05006KT P6SM OVC020
     FM230200 04006KT 5SM BR OVC007
     FM230400 04004KT 2SM BR OVC003
      AMD LTD TO CLD VIS AND WIND=

USA.gov is the U.S. government's official web portal to all federal, state and local government web resources and services.